Lugovoj, Kazakhstan
Current Conditions -  °F | °C
As of 9:00 AM on Monday 24 Nov 2014 (Local Time) from UADD Reporting Station
Overcast Overcast  
Wind Chill: 39°   Ceiling: 5000
Heat Index: 46°   Visibility: 6mi
Dew Point: 36°   Wind: 18mph
Humidity: 66%   Direction: 200°SSW
Pressure: 29.74"   Gusts: 29mph
Location:  42.95°N, 72.75°E
Report Text: UADD 240300Z 20008G13MPS 9999 BKN050CB OVC100 08/02 Q1007 NOSIGRMK QFE699/0932
Loading
Personal Weather Stations






























Interactive Weather Map New forecast layout! Learn more

10-Day Weather Forecast

Advertisements
Track Severe Weather on mobile